Terminal Aerodrome Forecast
Issued by NWS

Home | Current Version | Previous Version | Text Only | Print | Product List | Glossary On
Versions: 1 2 3 4 5 6 7 8 9 10 11 12 13 14 15 16 17 18 19 20 21 22 23 24
000
FTAK31 PANC 301122
TAFADQ
TAF
PADQ 301122Z 3012/0112 27003KT P6SM SKC
     FM302000 11007KT P6SM SKC
     FM010200 13008KT P6SM SCT040 BKN120
     FM010800 12012KT P6SM BKN040 OVC080=

USA.gov is the U.S. government's official web portal to all federal, state and local government web resources and services.